Terminal Aerodrome Forecast
Issued by NWS

Home | Current Version | Previous Version | Text Only | Print | Product List | Glossary On
Versions: 1 2 3 4 5 6 7 8 9 10 11 12
727
FTUS44 KLZK 141718 AAA
TAFLLQ
TAF AMD
KLLQ 141718Z 1417/1512 18007KT P6SM SCT015 OVC025
      TEMPO 1420/1424 BKN015
     FM150000 18006KT P6SM SCT012 OVC020
      TEMPO 1500/1504 5SM -RA BR BKN012
     FM150400 18006KT 5SM -RA BR SCT007 OVC012
     FM150800 18006KT 3SM RA BR VCTS OVC007CB=

USA.gov is the U.S. government's official web portal to all federal, state and local government web resources and services.